sensor_id;sensor_type;location;lat;lon;timestamp;temperature;humidity
5061;DHT22;2549;52.128;21.068;2023-04-24T00:01:24;17.30;68.30
5061;DHT22;2549;52.128;21.068;2023-04-24T00:03:51;17.30;68.20
5061;DHT22;2549;52.128;21.068;2023-04-24T00:06:18;17.30;68.10
5061;DHT22;2549;52.128;21.068;2023-04-24T00:08:45;17.30;68.00
5061;DHT22;2549;52.128;21.068;2023-04-24T00:11:12;17.30;67.80
5061;DHT22;2549;52.128;21.068;2023-04-24T00:13:39;17.30;67.80
5061;DHT22;2549;52.128;21.068;2023-04-24T00:16:06;17.30;67.90
5061;DHT22;2549;52.128;21.068;2023-04-24T00:18:33;17.30;67.70
5061;DHT22;2549;52.128;21.068;2023-04-24T00:21:00;17.30;67.70
5061;DHT22;2549;52.128;21.068;2023-04-24T00:23:26;17.20;67.70
5061;DHT22;2549;52.128;21.068;2023-04-24T00:25:53;17.20;67.80
5061;DHT22;2549;52.128;21.068;2023-04-24T00:28:23;17.20;67.90
5061;DHT22;2549;52.128;21.068;2023-04-24T00:30:52;17.10;68.00
5061;DHT22;2549;52.128;21.068;2023-04-24T00:33:19;17.20;68.30
5061;DHT22;2549;52.128;21.068;2023-04-24T00:35:47;17.10;68.00
5061;DHT22;2549;52.128;21.068;2023-04-24T00:38:13;17.10;68.00
5061;DHT22;2549;52.128;21.068;2023-04-24T00:40:40;17.10;68.10
5061;DHT22;2549;52.128;21.068;2023-04-24T00:43:07;17.10;68.00
5061;DHT22;2549;52.128;21.068;2023-04-24T00:45:36;17.10;67.80
5061;DHT22;2549;52.128;21.068;2023-04-24T00:48:02;17.10;67.80
5061;DHT22;2549;52.128;21.068;2023-04-24T00:50:30;17.10;67.80
5061;DHT22;2549;52.128;21.068;2023-04-24T00:53:00;17.10;67.80
5061;DHT22;2549;52.128;21.068;2023-04-24T00:55:26;17.10;67.80
5061;DHT22;2549;52.128;21.068;2023-04-24T00:57:53;17.20;67.80
5061;DHT22;2549;52.128;21.068;2023-04-24T01:00:21;17.20;68.10
5061;DHT22;2549;52.128;21.068;2023-04-24T01:02:48;17.20;68.20
5061;DHT22;2549;52.128;21.068;2023-04-24T01:05:16;17.10;68.50
5061;DHT22;2549;52.128;21.068;2023-04-24T01:07:45;17.10;68.80
5061;DHT22;2549;52.128;21.068;2023-04-24T01:10:13;17.00;69.40
5061;DHT22;2549;52.128;21.068;2023-04-24T01:12:41;17.00;69.80
5061;DHT22;2549;52.128;21.068;2023-04-24T01:15:08;17.00;69.80
5061;DHT22;2549;52.128;21.068;2023-04-24T01:17:35;17.00;69.10
5061;DHT22;2549;52.128;21.068;2023-04-24T01:20:02;17.00;68.50
5061;DHT22;2549;52.128;21.068;2023-04-24T01:22:35;16.90;68.40
5061;DHT22;2549;52.128;21.068;2023-04-24T01:25:03;17.00;68.40
5061;DHT22;2549;52.128;21.068;2023-04-24T01:27:30;16.90;68.60
5061;DHT22;2549;52.128;21.068;2023-04-24T01:29:57;17.00;68.70
5061;DHT22;2549;52.128;21.068;2023-04-24T01:32:24;17.10;68.70
5061;DHT22;2549;52.128;21.068;2023-04-24T01:34:51;17.10;68.80
5061;DHT22;2549;52.128;21.068;2023-04-24T01:37:18;17.10;68.80
5061;DHT22;2549;52.128;21.068;2023-04-24T01:39:45;17.10;69.20
5061;DHT22;2549;52.128;21.068;2023-04-24T01:42:12;17.10;69.30
5061;DHT22;2549;52.128;21.068;2023-04-24T01:44:40;17.10;69.40
5061;DHT22;2549;52.128;21.068;2023-04-24T01:47:07;17.00;69.50
5061;DHT22;2549;52.128;21.068;2023-04-24T01:49:34;17.00;70.70
5061;DHT22;2549;52.128;21.068;2023-04-24T01:52:01;17.00;71.00
5061;DHT22;2549;52.128;21.068;2023-04-24T01:54:28;16.90;70.80
5061;DHT22;2549;52.128;21.068;2023-04-24T01:56:55;16.80;71.00
5061;DHT22;2549;52.128;21.068;2023-04-24T01:59:23;16.80;72.60
5061;DHT22;2549;52.128;21.068;2023-04-24T02:01:51;16.70;72.30
5061;DHT22;2549;52.128;21.068;2023-04-24T02:04:18;16.80;72.60
5061;DHT22;2549;52.128;21.068;2023-04-24T02:06:45;16.70;72.60
5061;DHT22;2549;52.128;21.068;2023-04-24T02:09:12;16.70;72.70
5061;DHT22;2549;52.128;21.068;2023-04-24T02:11:39;16.60;72.70
5061;DHT22;2549;52.128;21.068;2023-04-24T02:14:06;16.60;73.10
5061;DHT22;2549;52.128;21.068;2023-04-24T02:16:32;16.50;73.10
5061;DHT22;2549;52.128;21.068;2023-04-24T02:19:00;16.50;73.80
5061;DHT22;2549;52.128;21.068;2023-04-24T02:21:27;16.40;72.70
5061;DHT22;2549;52.128;21.068;2023-04-24T02:23:54;16.30;72.60
5061;DHT22;2549;52.128;21.068;2023-04-24T02:26:21;16.40;72.90
5061;DHT22;2549;52.128;21.068;2023-04-24T02:28:48;16.30;72.80
5061;DHT22;2549;52.128;21.068;2023-04-24T02:31:15;16.30;72.80
5061;DHT22;2549;52.128;21.068;2023-04-24T02:33:42;16.30;72.90
5061;DHT22;2549;52.128;21.068;2023-04-24T02:36:08;16.30;72.60
5061;DHT22;2549;52.128;21.068;2023-04-24T02:38:35;16.20;72.50
5061;DHT22;2549;52.128;21.068;2023-04-24T02:41:02;16.20;72.30
5061;DHT22;2549;52.128;21.068;2023-04-24T02:43:32;16.10;72.80
5061;DHT22;2549;52.128;21.068;2023-04-24T02:46:00;16.10;72.20
5061;DHT22;2549;52.128;21.068;2023-04-24T02:48:27;16.10;72.20
5061;DHT22;2549;52.128;21.068;2023-04-24T02:50:54;16.10;72.20
5061;DHT22;2549;52.128;21.068;2023-04-24T02:53:21;16.00;72.10
5061;DHT22;2549;52.128;21.068;2023-04-24T02:55:48;16.00;72.00
5061;DHT22;2549;52.128;21.068;2023-04-24T02:58:15;16.00;72.10
5061;DHT22;2549;52.128;21.068;2023-04-24T03:00:42;15.90;72.00
5061;DHT22;2549;52.128;21.068;2023-04-24T03:03:10;15.90;72.20
5061;DHT22;2549;52.128;21.068;2023-04-24T03:05:37;15.90;72.30
5061;DHT22;2549;52.128;21.068;2023-04-24T03:08:04;15.90;72.40
5061;DHT22;2549;52.128;21.068;2023-04-24T03:10:31;15.90;72.40
5061;DHT22;2549;52.128;21.068;2023-04-24T03:12:58;15.90;72.50
5061;DHT22;2549;52.128;21.068;2023-04-24T03:15:26;15.90;72.60
5061;DHT22;2549;52.128;21.068;2023-04-24T03:17:53;15.90;72.70
5061;DHT22;2549;52.128;21.068;2023-04-24T03:20:22;15.90;72.90
5061;DHT22;2549;52.128;21.068;2023-04-24T03:22:52;15.90;72.90
5061;DHT22;2549;52.128;21.068;2023-04-24T03:25:18;15.90;72.70
5061;DHT22;2549;52.128;21.068;2023-04-24T03:27:45;15.90;72.80
5061;DHT22;2549;52.128;21.068;2023-04-24T03:30:12;15.80;72.60
5061;DHT22;2549;52.128;21.068;2023-04-24T03:32:39;15.70;72.80
5061;DHT22;2549;52.128;21.068;2023-04-24T03:35:07;15.70;72.90
5061;DHT22;2549;52.128;21.068;2023-04-24T03:37:35;15.70;72.80
5061;DHT22;2549;52.128;21.068;2023-04-24T03:40:02;15.70;72.90
5061;DHT22;2549;52.128;21.068;2023-04-24T03:42:29;15.70;73.00
5061;DHT22;2549;52.128;21.068;2023-04-24T03:44:56;15.70;73.30
5061;DHT22;2549;52.128;21.068;2023-04-24T03:47:23;15.70;73.40
5061;DHT22;2549;52.128;21.068;2023-04-24T03:49:50;15.70;73.50
5061;DHT22;2549;52.128;21.068;2023-04-24T03:52:17;15.70;73.70
5061;DHT22;2549;52.128;21.068;2023-04-24T03:54:43;15.60;73.80
5061;DHT22;2549;52.128;21.068;2023-04-24T03:57:10;15.60;74.10
5061;DHT22;2549;52.128;21.068;2023-04-24T03:59:38;15.60;74.30
5061;DHT22;2549;52.128;21.068;2023-04-24T04:02:04;15.60;74.60
5061;DHT22;2549;52.128;21.068;2023-04-24T04:04:31;15.60;75.00
5061;DHT22;2549;52.128;21.068;2023-04-24T04:06:59;15.60;75.10
5061;DHT22;2549;52.128;21.068;2023-04-24T04:09:29;15.60;75.10
5061;DHT22;2549;52.128;21.068;2023-04-24T04:11:56;15.50;75.00
5061;DHT22;2549;52.128;21.068;2023-04-24T04:14:23;15.50;75.10
5061;DHT22;2549;52.128;21.068;2023-04-24T04:16:50;15.50;75.10
5061;DHT22;2549;52.128;21.068;2023-04-24T04:19:20;15.40;75.70
5061;DHT22;2549;52.128;21.068;2023-04-24T04:21:47;15.50;75.60
5061;DHT22;2549;52.128;21.068;2023-04-24T04:24:19;15.50;75.40
5061;DHT22;2549;52.128;21.068;2023-04-24T04:26:47;15.40;75.50
5061;DHT22;2549;52.128;21.068;2023-04-24T04:29:14;15.50;75.60
5061;DHT22;2549;52.128;21.068;2023-04-24T04:31:44;15.50;75.40
5061;DHT22;2549;52.128;21.068;2023-04-24T04:34:11;15.50;75.90
5061;DHT22;2549;52.128;21.068;2023-04-24T04:36:39;15.50;75.80
5061;DHT22;2549;52.128;21.068;2023-04-24T04:39:07;15.50;75.60
5061;DHT22;2549;52.128;21.068;2023-04-24T04:41:34;15.60;75.70
5061;DHT22;2549;52.128;21.068;2023-04-24T04:44:01;15.60;75.70
5061;DHT22;2549;52.128;21.068;2023-04-24T04:46:31;15.60;75.70
5061;DHT22;2549;52.128;21.068;2023-04-24T04:49:01;15.60;75.80
5061;DHT22;2549;52.128;21.068;2023-04-24T04:51:28;15.60;75.50
5061;DHT22;2549;52.128;21.068;2023-04-24T04:53:54;15.60;75.50
5061;DHT22;2549;52.128;21.068;2023-04-24T04:56:21;15.70;75.70
5061;DHT22;2549;52.128;21.068;2023-04-24T04:58:48;15.70;75.80
5061;DHT22;2549;52.128;21.068;2023-04-24T05:01:15;15.70;76.00
5061;DHT22;2549;52.128;21.068;2023-04-24T05:03:42;15.70;76.00
5061;DHT22;2549;52.128;21.068;2023-04-24T05:06:09;15.70;75.90
5061;DHT22;2549;52.128;21.068;2023-04-24T05:08:36;15.70;76.00
5061;DHT22;2549;52.128;21.068;2023-04-24T05:11:03;15.70;76.30
5061;DHT22;2549;52.128;21.068;2023-04-24T05:13:30;15.70;76.50
5061;DHT22;2549;52.128;21.068;2023-04-24T05:16:06;15.70;76.20
5061;DHT22;2549;52.128;21.068;2023-04-24T05:18:33;15.70;76.40
5061;DHT22;2549;52.128;21.068;2023-04-24T05:21:00;15.70;76.40
5061;DHT22;2549;52.128;21.068;2023-04-24T05:23:28;15.80;76.50
5061;DHT22;2549;52.128;21.068;2023-04-24T05:25:54;15.80;76.30
5061;DHT22;2549;52.128;21.068;2023-04-24T05:28:21;15.90;76.20
5061;DHT22;2549;52.128;21.068;2023-04-24T05:30:48;15.90;76.50
5061;DHT22;2549;52.128;21.068;2023-04-24T05:33:15;15.90;76.60
5061;DHT22;2549;52.128;21.068;2023-04-24T05:35:42;16.00;76.70
5061;DHT22;2549;52.128;21.068;2023-04-24T05:38:13;16.00;76.70
5061;DHT22;2549;52.128;21.068;2023-04-24T05:40:41;16.10;76.70
5061;DHT22;2549;52.128;21.068;2023-04-24T05:43:08;16.10;76.70
5061;DHT22;2549;52.128;21.068;2023-04-24T05:45:34;16.20;76.70
5061;DHT22;2549;52.128;21.068;2023-04-24T05:48:03;16.30;76.70
5061;DHT22;2549;52.128;21.068;2023-04-24T05:50:30;16.30;76.50
5061;DHT22;2549;52.128;21.068;2023-04-24T05:52:57;16.30;76.90
5061;DHT22;2549;52.128;21.068;2023-04-24T05:55:28;16.40;76.80
5061;DHT22;2549;52.128;21.068;2023-04-24T05:57:55;16.40;77.50
5061;DHT22;2549;52.128;21.068;2023-04-24T06:00:23;16.40;78.80
5061;DHT22;2549;52.128;21.068;2023-04-24T06:02:50;16.40;79.30
5061;DHT22;2549;52.128;21.068;2023-04-24T06:05:19;16.40;79.50
5061;DHT22;2549;52.128;21.068;2023-04-24T06:07:47;16.40;79.60
5061;DHT22;2549;52.128;21.068;2023-04-24T06:10:13;16.40;80.00
5061;DHT22;2549;52.128;21.068;2023-04-24T06:12:40;16.40;80.00
5061;DHT22;2549;52.128;21.068;2023-04-24T06:15:07;16.50;80.50
5061;DHT22;2549;52.128;21.068;2023-04-24T06:17:34;16.50;80.70
5061;DHT22;2549;52.128;21.068;2023-04-24T06:20:01;16.50;80.40
5061;DHT22;2549;52.128;21.068;2023-04-24T06:22:31;16.60;80.60
5061;DHT22;2549;52.128;21.068;2023-04-24T06:24:59;16.70;80.70
5061;DHT22;2549;52.128;21.068;2023-04-24T06:27:26;16.70;80.80
5061;DHT22;2549;52.128;21.068;2023-04-24T06:29:53;16.80;81.70
5061;DHT22;2549;52.128;21.068;2023-04-24T06:32:22;16.80;81.70
5061;DHT22;2549;52.128;21.068;2023-04-24T06:34:53;16.80;81.50
5061;DHT22;2549;52.128;21.068;2023-04-24T06:37:20;16.90;81.30
5061;DHT22;2549;52.128;21.068;2023-04-24T06:39:47;16.90;80.50
5061;DHT22;2549;52.128;21.068;2023-04-24T06:42:14;16.90;80.70
5061;DHT22;2549;52.128;21.068;2023-04-24T06:44:41;16.90;80.90
5061;DHT22;2549;52.128;21.068;2023-04-24T06:47:11;16.90;80.90
5061;DHT22;2549;52.128;21.068;2023-04-24T06:49:40;17.00;81.50
5061;DHT22;2549;52.128;21.068;2023-04-24T06:52:07;17.00;81.80
5061;DHT22;2549;52.128;21.068;2023-04-24T07:05:34;17.10;82.40
5061;DHT22;2549;52.128;21.068;2023-04-24T07:08:02;17.20;81.70
5061;DHT22;2549;52.128;21.068;2023-04-24T07:10:29;17.20;81.50
5061;DHT22;2549;52.128;21.068;2023-04-24T07:12:56;17.30;81.90
5061;DHT22;2549;52.128;21.068;2023-04-24T07:15:23;17.40;81.40
5061;DHT22;2549;52.128;21.068;2023-04-24T07:17:50;17.50;80.80
5061;DHT22;2549;52.128;21.068;2023-04-24T07:20:17;17.60;81.00
5061;DHT22;2549;52.128;21.068;2023-04-24T07:22:44;17.60;80.60
5061;DHT22;2549;52.128;21.068;2023-04-24T07:25:10;17.70;80.80
5061;DHT22;2549;52.128;21.068;2023-04-24T07:27:37;17.80;80.80
5061;DHT22;2549;52.128;21.068;2023-04-24T07:30:05;17.90;81.10
5061;DHT22;2549;52.128;21.068;2023-04-24T07:32:33;18.00;81.40
5061;DHT22;2549;52.128;21.068;2023-04-24T07:35:01;18.10;81.30
5061;DHT22;2549;52.128;21.068;2023-04-24T07:37:28;18.20;81.30
5061;DHT22;2549;52.128;21.068;2023-04-24T07:39:55;18.20;80.50
5061;DHT22;2549;52.128;21.068;2023-04-24T07:42:22;18.30;80.70
5061;DHT22;2549;52.128;21.068;2023-04-24T07:44:49;18.30;80.80
5061;DHT22;2549;52.128;21.068;2023-04-24T07:47:17;18.50;81.00
5061;DHT22;2549;52.128;21.068;2023-04-24T07:49:44;18.50;80.60
5061;DHT22;2549;52.128;21.068;2023-04-24T07:52:11;18.60;80.30
5061;DHT22;2549;52.128;21.068;2023-04-24T07:54:38;18.60;79.70
5061;DHT22;2549;52.128;21.068;2023-04-24T07:57:05;18.70;79.70
5061;DHT22;2549;52.128;21.068;2023-04-24T07:59:34;18.80;79.80
5061;DHT22;2549;52.128;21.068;2023-04-24T08:02:01;18.80;79.30
5061;DHT22;2549;52.128;21.068;2023-04-24T08:04:28;18.90;79.10
5061;DHT22;2549;52.128;21.068;2023-04-24T08:06:55;19.00;78.80
5061;DHT22;2549;52.128;21.068;2023-04-24T08:09:22;19.00;78.70
5061;DHT22;2549;52.128;21.068;2023-04-24T08:11:51;19.10;78.40
5061;DHT22;2549;52.128;21.068;2023-04-24T08:14:22;19.10;77.40
5061;DHT22;2549;52.128;21.068;2023-04-24T08:16:49;19.30;77.70
5061;DHT22;2549;52.128;21.068;2023-04-24T08:19:16;19.30;77.70
5061;DHT22;2549;52.128;21.068;2023-04-24T08:21:42;19.40;78.00
5061;DHT22;2549;52.128;21.068;2023-04-24T08:24:09;19.40;77.80
5061;DHT22;2549;52.128;21.068;2023-04-24T08:26:36;19.50;78.30
5061;DHT22;2549;52.128;21.068;2023-04-24T08:29:04;19.50;78.00
5061;DHT22;2549;52.128;21.068;2023-04-24T08:31:32;19.50;77.80
5061;DHT22;2549;52.128;21.068;2023-04-24T08:33:59;19.60;77.40
5061;DHT22;2549;52.128;21.068;2023-04-24T08:36:27;19.70;76.60
5061;DHT22;2549;52.128;21.068;2023-04-24T08:39:12;19.70;77.00
5061;DHT22;2549;52.128;21.068;2023-04-24T08:41:41;19.80;76.90
5061;DHT22;2549;52.128;21.068;2023-04-24T08:44:10;19.90;76.40
5061;DHT22;2549;52.128;21.068;2023-04-24T08:46:38;19.90;76.60
5061;DHT22;2549;52.128;21.068;2023-04-24T08:49:06;20.00;75.80
5061;DHT22;2549;52.128;21.068;2023-04-24T08:51:33;20.10;75.80
5061;DHT22;2549;52.128;21.068;2023-04-24T08:54:00;20.10;73.80
5061;DHT22;2549;52.128;21.068;2023-04-24T08:56:28;20.20;74.90
5061;DHT22;2549;52.128;21.068;2023-04-24T08:58:57;20.20;74.90
5061;DHT22;2549;52.128;21.068;2023-04-24T09:01:25;20.30;75.30
5061;DHT22;2549;52.128;21.068;2023-04-24T09:03:53;20.30;75.50
5061;DHT22;2549;52.128;21.068;2023-04-24T09:06:22;20.40;75.50
5061;DHT22;2549;52.128;21.068;2023-04-24T09:08:51;20.50;75.20
5061;DHT22;2549;52.128;21.068;2023-04-24T09:11:19;20.60;76.40
5061;DHT22;2549;52.128;21.068;2023-04-24T09:13:46;20.70;75.90
5061;DHT22;2549;52.128;21.068;2023-04-24T09:16:15;20.80;75.20
5061;DHT22;2549;52.128;21.068;2023-04-24T09:18:41;20.80;73.60
5061;DHT22;2549;52.128;21.068;2023-04-24T09:21:09;20.90;71.30
5061;DHT22;2549;52.128;21.068;2023-04-24T09:23:36;20.90;71.40
5061;DHT22;2549;52.128;21.068;2023-04-24T09:26:03;21.00;70.50
5061;DHT22;2549;52.128;21.068;2023-04-24T09:28:40;21.00;70.50
5061;DHT22;2549;52.128;21.068;2023-04-24T09:31:13;21.00;71.00
5061;DHT22;2549;52.128;21.068;2023-04-24T09:33:56;20.90;73.30
5061;DHT22;2549;52.128;21.068;2023-04-24T09:36:28;20.90;73.50
5061;DHT22;2549;52.128;21.068;2023-04-24T09:39:00;20.80;74.30
5061;DHT22;2549;52.128;21.068;2023-04-24T09:41:28;20.80;75.20
5061;DHT22;2549;52.128;21.068;2023-04-24T09:44:10;20.80;75.40
5061;DHT22;2549;52.128;21.068;2023-04-24T09:46:38;20.80;73.90
5061;DHT22;2549;52.128;21.068;2023-04-24T09:49:10;20.90;74.20
5061;DHT22;2549;52.128;21.068;2023-04-24T09:51:40;20.90;73.40
5061;DHT22;2549;52.128;21.068;2023-04-24T09:54:21;21.00;73.80
5061;DHT22;2549;52.128;21.068;2023-04-24T09:56:49;21.00;73.60
5061;DHT22;2549;52.128;21.068;2023-04-24T09:59:18;21.00;73.60
5061;DHT22;2549;52.128;21.068;2023-04-24T10:01:45;21.00;73.40
5061;DHT22;2549;52.128;21.068;2023-04-24T10:04:23;21.00;72.50
5061;DHT22;2549;52.128;21.068;2023-04-24T10:06:52;20.90;73.30
5061;DHT22;2549;52.128;21.068;2023-04-24T10:09:21;21.00;72.30
5061;DHT22;2549;52.128;21.068;2023-04-24T10:11:50;21.10;72.20
5061;DHT22;2549;52.128;21.068;2023-04-24T10:14:19;21.10;72.70
5061;DHT22;2549;52.128;21.068;2023-04-24T10:16:48;21.10;71.70
5061;DHT22;2549;52.128;21.068;2023-04-24T10:19:16;21.10;70.00
5061;DHT22;2549;52.128;21.068;2023-04-24T10:21:44;21.10;70.40
5061;DHT22;2549;52.128;21.068;2023-04-24T10:24:14;21.20;71.30
5061;DHT22;2549;52.128;21.068;2023-04-24T10:26:43;21.20;72.10
5061;DHT22;2549;52.128;21.068;2023-04-24T10:29:14;21.20;71.20
5061;DHT22;2549;52.128;21.068;2023-04-24T10:31:42;21.30;71.20
5061;DHT22;2549;52.128;21.068;2023-04-24T10:34:13;21.30;70.10
5061;DHT22;2549;52.128;21.068;2023-04-24T10:36:51;21.40;69.60
5061;DHT22;2549;52.128;21.068;2023-04-24T10:39:22;21.50;69.20
5061;DHT22;2549;52.128;21.068;2023-04-24T10:41:54;21.60;69.80
5061;DHT22;2549;52.128;21.068;2023-04-24T10:44:24;21.60;67.70
5061;DHT22;2549;52.128;21.068;2023-04-24T10:46:55;21.60;68.20
5061;DHT22;2549;52.128;21.068;2023-04-24T10:49:31;21.60;67.70
5061;DHT22;2549;52.128;21.068;2023-04-24T10:52:03;21.60;66.10
5061;DHT22;2549;52.128;21.068;2023-04-24T10:54:40;21.70;64.80
5061;DHT22;2549;52.128;21.068;2023-04-24T10:59:49;21.80;65.10
5061;DHT22;2549;52.128;21.068;2023-04-24T11:02:17;21.70;64.20
5061;DHT22;2549;52.128;21.068;2023-04-24T11:04:45;21.90;64.80
5061;DHT22;2549;52.128;21.068;2023-04-24T11:07:13;21.90;63.90
5061;DHT22;2549;52.128;21.068;2023-04-24T11:09:42;21.90;64.00
5061;DHT22;2549;52.128;21.068;2023-04-24T11:12:11;21.80;63.70
5061;DHT22;2549;52.128;21.068;2023-04-24T11:15:02;21.80;63.70
5061;DHT22;2549;52.128;21.068;2023-04-24T11:17:30;21.90;62.60
5061;DHT22;2549;52.128;21.068;2023-04-24T11:22:53;21.90;61.10
5061;DHT22;2549;52.128;21.068;2023-04-24T11:25:21;22.00;61.80
5061;DHT22;2549;52.128;21.068;2023-04-24T11:27:49;22.00;61.90
5061;DHT22;2549;52.128;21.068;2023-04-24T11:30:18;22.00;61.50
5061;DHT22;2549;52.128;21.068;2023-04-24T11:32:51;22.10;62.30
5061;DHT22;2549;52.128;21.068;2023-04-24T11:35:22;22.20;64.30
5061;DHT22;2549;52.128;21.068;2023-04-24T11:37:54;22.30;63.80
5061;DHT22;2549;52.128;21.068;2023-04-24T11:40:24;22.30;63.20
5061;DHT22;2549;52.128;21.068;2023-04-24T11:42:53;22.30;63.20
5061;DHT22;2549;52.128;21.068;2023-04-24T11:45:27;22.30;63.20
5061;DHT22;2549;52.128;21.068;2023-04-24T11:47:54;22.30;62.10
5061;DHT22;2549;52.128;21.068;2023-04-24T11:50:26;22.40;62.80
5061;DHT22;2549;52.128;21.068;2023-04-24T11:52:54;22.40;63.30
5061;DHT22;2549;52.128;21.068;2023-04-24T11:55:22;22.50;63.50
5061;DHT22;2549;52.128;21.068;2023-04-24T11:57:52;22.50;63.30
5061;DHT22;2549;52.128;21.068;2023-04-24T12:00:24;22.50;63.30
5061;DHT22;2549;52.128;21.068;2023-04-24T12:02:51;22.60;64.70
5061;DHT22;2549;52.128;21.068;2023-04-24T12:05:23;22.60;65.00
5061;DHT22;2549;52.128;21.068;2023-04-24T12:07:52;22.70;64.40
5061;DHT22;2549;52.128;21.068;2023-04-24T12:10:23;22.60;64.50
5061;DHT22;2549;52.128;21.068;2023-04-24T12:12:51;22.70;64.60
5061;DHT22;2549;52.128;21.068;2023-04-24T12:15:19;22.70;64.60
5061;DHT22;2549;52.128;21.068;2023-04-24T12:17:46;22.70;63.90
5061;DHT22;2549;52.128;21.068;2023-04-24T12:20:14;22.80;64.20
5061;DHT22;2549;52.128;21.068;2023-04-24T12:25:12;22.80;63.10
5061;DHT22;2549;52.128;21.068;2023-04-24T12:27:39;22.80;61.80
5061;DHT22;2549;52.128;21.068;2023-04-24T12:30:13;22.80;60.40
5061;DHT22;2549;52.128;21.068;2023-04-24T12:32:46;22.80;60.50
5061;DHT22;2549;52.128;21.068;2023-04-24T12:35:13;22.80;60.70
5061;DHT22;2549;52.128;21.068;2023-04-24T12:37:42;22.80;61.60
5061;DHT22;2549;52.128;21.068;2023-04-24T12:40:13;22.80;62.00
5061;DHT22;2549;52.128;21.068;2023-04-24T12:42:49;22.80;62.20
5061;DHT22;2549;52.128;21.068;2023-04-24T12:45:18;22.80;63.20
5061;DHT22;2549;52.128;21.068;2023-04-24T12:47:45;22.90;63.00
5061;DHT22;2549;52.128;21.068;2023-04-24T12:50:14;22.80;63.40
5061;DHT22;2549;52.128;21.068;2023-04-24T12:52:42;22.80;63.90
5061;DHT22;2549;52.128;21.068;2023-04-24T12:55:09;22.70;64.10
5061;DHT22;2549;52.128;21.068;2023-04-24T12:57:38;22.70;63.30
5061;DHT22;2549;52.128;21.068;2023-04-24T13:00:06;22.60;63.60
5061;DHT22;2549;52.128;21.068;2023-04-24T13:02:34;22.70;64.30
5061;DHT22;2549;52.128;21.068;2023-04-24T13:05:02;22.60;64.30
5061;DHT22;2549;52.128;21.068;2023-04-24T13:07:29;22.60;64.30
5061;DHT22;2549;52.128;21.068;2023-04-24T13:09:56;22.70;63.50
5061;DHT22;2549;52.128;21.068;2023-04-24T13:12:24;22.70;63.20
5061;DHT22;2549;52.128;21.068;2023-04-24T13:14:51;22.70;63.40
5061;DHT22;2549;52.128;21.068;2023-04-24T13:17:18;22.70;62.90
5061;DHT22;2549;52.128;21.068;2023-04-24T13:19:45;22.70;62.90
5061;DHT22;2549;52.128;21.068;2023-04-24T13:22:12;22.70;62.90
5061;DHT22;2549;52.128;21.068;2023-04-24T13:24:39;22.80;63.40
5061;DHT22;2549;52.128;21.068;2023-04-24T13:27:07;22.70;62.80
5061;DHT22;2549;52.128;21.068;2023-04-24T13:29:35;22.70;63.30
5061;DHT22;2549;52.128;21.068;2023-04-24T13:32:02;22.80;63.10
5061;DHT22;2549;52.128;21.068;2023-04-24T13:34:28;22.60;62.70
5061;DHT22;2549;52.128;21.068;2023-04-24T13:36:57;22.50;62.70
5061;DHT22;2549;52.128;21.068;2023-04-24T13:39:25;22.50;63.40
5061;DHT22;2549;52.128;21.068;2023-04-24T13:41:53;22.60;64.30
5061;DHT22;2549;52.128;21.068;2023-04-24T13:44:20;22.70;63.20
5061;DHT22;2549;52.128;21.068;2023-04-24T13:46:50;22.70;61.80
5061;DHT22;2549;52.128;21.068;2023-04-24T13:49:18;22.70;61.40
5061;DHT22;2549;52.128;21.068;2023-04-24T13:51:45;22.80;62.00
5061;DHT22;2549;52.128;21.068;2023-04-24T13:54:12;22.80;61.30
5061;DHT22;2549;52.128;21.068;2023-04-24T13:56:40;22.80;60.70
5061;DHT22;2549;52.128;21.068;2023-04-24T13:59:07;22.80;60.00
5061;DHT22;2549;52.128;21.068;2023-04-24T14:01:35;22.70;60.50
5061;DHT22;2549;52.128;21.068;2023-04-24T14:04:02;22.70;60.40
5061;DHT22;2549;52.128;21.068;2023-04-24T14:06:29;22.70;60.60
5061;DHT22;2549;52.128;21.068;2023-04-24T14:08:56;22.60;60.30
5061;DHT22;2549;52.128;21.068;2023-04-24T14:11:23;22.60;60.10
5061;DHT22;2549;52.128;21.068;2023-04-24T14:13:49;22.50;59.50
5061;DHT22;2549;52.128;21.068;2023-04-24T14:16:16;22.60;59.50
5061;DHT22;2549;52.128;21.068;2023-04-24T14:18:43;22.60;59.30
5061;DHT22;2549;52.128;21.068;2023-04-24T14:21:10;22.60;59.00
5061;DHT22;2549;52.128;21.068;2023-04-24T14:23:37;22.60;59.40
5061;DHT22;2549;52.128;21.068;2023-04-24T14:26:04;22.60;59.90
5061;DHT22;2549;52.128;21.068;2023-04-24T14:28:32;22.60;59.80
5061;DHT22;2549;52.128;21.068;2023-04-24T14:30:59;22.60;59.60
5061;DHT22;2549;52.128;21.068;2023-04-24T14:33:26;22.60;59.60
5061;DHT22;2549;52.128;21.068;2023-04-24T14:35:52;22.60;59.40
5061;DHT22;2549;52.128;21.068;2023-04-24T14:38:20;22.60;59.10
5061;DHT22;2549;52.128;21.068;2023-04-24T14:40:47;22.60;58.90
5061;DHT22;2549;52.128;21.068;2023-04-24T14:43:16;22.60;59.50
5061;DHT22;2549;52.128;21.068;2023-04-24T14:45:43;22.60;59.10
5061;DHT22;2549;52.128;21.068;2023-04-24T14:48:10;22.60;59.10
5061;DHT22;2549;52.128;21.068;2023-04-24T14:50:38;22.60;59.40
5061;DHT22;2549;52.128;21.068;2023-04-24T14:53:04;22.60;59.60
5061;DHT22;2549;52.128;21.068;2023-04-24T14:55:31;22.60;59.40
5061;DHT22;2549;52.128;21.068;2023-04-24T14:57:59;22.60;59.20
5061;DHT22;2549;52.128;21.068;2023-04-24T15:00:26;22.60;59.00
5061;DHT22;2549;52.128;21.068;2023-04-24T15:02:53;22.60;58.60
5061;DHT22;2549;52.128;21.068;2023-04-24T15:05:22;22.60;58.70
5061;DHT22;2549;52.128;21.068;2023-04-24T15:07:49;22.60;58.90
5061;DHT22;2549;52.128;21.068;2023-04-24T15:10:16;22.60;58.50
5061;DHT22;2549;52.128;21.068;2023-04-24T15:12:44;22.60;59.00
5061;DHT22;2549;52.128;21.068;2023-04-24T15:15:11;22.60;59.40
5061;DHT22;2549;52.128;21.068;2023-04-24T15:17:38;22.60;60.20
5061;DHT22;2549;52.128;21.068;2023-04-24T15:20:06;22.60;59.20
5061;DHT22;2549;52.128;21.068;2023-04-24T15:22:33;22.60;59.00
5061;DHT22;2549;52.128;21.068;2023-04-24T15:24:59;22.60;58.90
5061;DHT22;2549;52.128;21.068;2023-04-24T15:27:27;22.60;59.00
5061;DHT22;2549;52.128;21.068;2023-04-24T15:30:05;22.60;59.10
5061;DHT22;2549;52.128;21.068;2023-04-24T15:32:32;22.60;59.50
5061;DHT22;2549;52.128;21.068;2023-04-24T15:34:59;22.50;59.20
5061;DHT22;2549;52.128;21.068;2023-04-24T15:37:35;22.50;58.30
5061;DHT22;2549;52.128;21.068;2023-04-24T15:40:02;22.50;57.70
5061;DHT22;2549;52.128;21.068;2023-04-24T15:42:31;22.50;57.40
5061;DHT22;2549;52.128;21.068;2023-04-24T15:44:58;22.50;57.70
5061;DHT22;2549;52.128;21.068;2023-04-24T15:47:25;22.50;58.30
5061;DHT22;2549;52.128;21.068;2023-04-24T15:49:52;22.50;58.70
5061;DHT22;2549;52.128;21.068;2023-04-24T15:52:20;22.50;59.20
5061;DHT22;2549;52.128;21.068;2023-04-24T15:54:47;22.50;59.30
5061;DHT22;2549;52.128;21.068;2023-04-24T15:57:14;22.50;59.00
5061;DHT22;2549;52.128;21.068;2023-04-24T15:59:41;22.40;58.70
5061;DHT22;2549;52.128;21.068;2023-04-24T16:02:09;22.40;58.20
5061;DHT22;2549;52.128;21.068;2023-04-24T16:04:37;22.40;57.80
5061;DHT22;2549;52.128;21.068;2023-04-24T16:07:04;22.40;57.90
5061;DHT22;2549;52.128;21.068;2023-04-24T16:09:31;22.40;58.20